sensor_id;sensor_type;location;lat;lon;timestamp;P1;durP1;ratioP1;P2;durP2;ratioP2
12947;SDS011;6539;49.476;8.484;2023-02-28T00:01:32;2.00;;;1.80;;
12947;SDS011;6539;49.476;8.484;2023-02-28T00:04:00;1.90;;;1.60;;
12947;SDS011;6539;49.476;8.484;2023-02-28T00:06:27;3.00;;;2.10;;
12947;SDS011;6539;49.476;8.484;2023-02-28T00:08:53;2.13;;;1.63;;
12947;SDS011;6539;49.476;8.484;2023-02-28T00:11:24;2.10;;;1.70;;
12947;SDS011;6539;49.476;8.484;2023-02-28T00:13:51;3.27;;;1.80;;
12947;SDS011;6539;49.476;8.484;2023-02-28T00:16:19;2.00;;;1.53;;
12947;SDS011;6539;49.476;8.484;2023-02-28T00:18:46;1.83;;;1.50;;
12947;SDS011;6539;49.476;8.484;2023-02-28T00:21:18;1.80;;;1.70;;
12947;SDS011;6539;49.476;8.484;2023-02-28T00:23:45;3.20;;;1.90;;
12947;SDS011;6539;49.476;8.484;2023-02-28T00:26:15;1.93;;;1.73;;
12947;SDS011;6539;49.476;8.484;2023-02-28T00:28:41;3.13;;;2.10;;
12947;SDS011;6539;49.476;8.484;2023-02-28T00:31:11;1.97;;;1.77;;
12947;SDS011;6539;49.476;8.484;2023-02-28T00:33:37;2.00;;;1.80;;
12947;SDS011;6539;49.476;8.484;2023-02-28T00:36:04;2.30;;;1.90;;
12947;SDS011;6539;49.476;8.484;2023-02-28T00:38:33;2.97;;;1.90;;
12947;SDS011;6539;49.476;8.484;2023-02-28T00:41:01;4.43;;;2.23;;
12947;SDS011;6539;49.476;8.484;2023-02-28T00:43:29;1.80;;;1.57;;
12947;SDS011;6539;49.476;8.484;2023-02-28T00:45:57;2.47;;;2.10;;
12947;SDS011;6539;49.476;8.484;2023-02-28T00:48:23;2.40;;;1.90;;
12947;SDS011;6539;49.476;8.484;2023-02-28T00:50:51;3.33;;;2.10;;
12947;SDS011;6539;49.476;8.484;2023-02-28T00:53:19;2.00;;;1.80;;
12947;SDS011;6539;49.476;8.484;2023-02-28T00:55:45;2.77;;;2.20;;
12947;SDS011;6539;49.476;8.484;2023-02-28T00:58:13;2.57;;;2.03;;
12947;SDS011;6539;49.476;8.484;2023-02-28T01:00:42;4.10;;;2.20;;
12947;SDS011;6539;49.476;8.484;2023-02-28T01:03:10;3.80;;;1.90;;
12947;SDS011;6539;49.476;8.484;2023-02-28T01:05:35;2.63;;;2.20;;
12947;SDS011;6539;49.476;8.484;2023-02-28T01:08:03;2.63;;;2.13;;
12947;SDS011;6539;49.476;8.484;2023-02-28T01:10:29;2.70;;;1.90;;
12947;SDS011;6539;49.476;8.484;2023-02-28T01:12:58;4.13;;;2.17;;
12947;SDS011;6539;49.476;8.484;2023-02-28T01:15:24;2.63;;;2.07;;
12947;SDS011;6539;49.476;8.484;2023-02-28T01:17:52;3.33;;;2.23;;
12947;SDS011;6539;49.476;8.484;2023-02-28T01:20:18;2.53;;;2.00;;
12947;SDS011;6539;49.476;8.484;2023-02-28T01:22:44;2.23;;;1.87;;
12947;SDS011;6539;49.476;8.484;2023-02-28T01:25:12;3.17;;;2.27;;
12947;SDS011;6539;49.476;8.484;2023-02-28T01:27:38;2.90;;;2.63;;
12947;SDS011;6539;49.476;8.484;2023-02-28T01:30:09;3.40;;;2.30;;
12947;SDS011;6539;49.476;8.484;2023-02-28T01:32:36;3.93;;;2.27;;
12947;SDS011;6539;49.476;8.484;2023-02-28T01:35:02;2.87;;;2.47;;
12947;SDS011;6539;49.476;8.484;2023-02-28T01:37:28;3.63;;;2.40;;
12947;SDS011;6539;49.476;8.484;2023-02-28T01:39:56;3.63;;;2.20;;
12947;SDS011;6539;49.476;8.484;2023-02-28T01:42:21;3.67;;;2.50;;
12947;SDS011;6539;49.476;8.484;2023-02-28T01:45:16;3.43;;;2.63;;
12947;SDS011;6539;49.476;8.484;2023-02-28T01:48:00;2.83;;;2.10;;
12947;SDS011;6539;49.476;8.484;2023-02-28T01:50:34;3.17;;;2.30;;
12947;SDS011;6539;49.476;8.484;2023-02-28T01:53:06;2.63;;;2.13;;
12947;SDS011;6539;49.476;8.484;2023-02-28T01:55:39;3.50;;;2.33;;
12947;SDS011;6539;49.476;8.484;2023-02-28T01:58:13;3.03;;;2.53;;
12947;SDS011;6539;49.476;8.484;2023-02-28T02:00:43;2.80;;;2.27;;
12947;SDS011;6539;49.476;8.484;2023-02-28T02:03:14;2.60;;;2.13;;
12947;SDS011;6539;49.476;8.484;2023-02-28T02:05:45;3.87;;;2.67;;
12947;SDS011;6539;49.476;8.484;2023-02-28T02:08:15;4.67;;;2.50;;
12947;SDS011;6539;49.476;8.484;2023-02-28T02:10:50;3.17;;;2.40;;
12947;SDS011;6539;49.476;8.484;2023-02-28T02:13:32;3.80;;;2.60;;
12947;SDS011;6539;49.476;8.484;2023-02-28T02:16:15;3.23;;;2.60;;
12947;SDS011;6539;49.476;8.484;2023-02-28T02:25:34;3.27;;;2.77;;
12947;SDS011;6539;49.476;8.484;2023-02-28T02:36:55;6.30;;;2.70;;
12947;SDS011;6539;49.476;8.484;2023-02-28T02:40:08;2.80;;;2.60;;
12947;SDS011;6539;49.476;8.484;2023-02-28T02:43:08;2.93;;;2.63;;
12947;SDS011;6539;49.476;8.484;2023-02-28T02:46:41;4.20;;;2.67;;
12947;SDS011;6539;49.476;8.484;2023-02-28T02:48:57;3.83;;;2.90;;
12947;SDS011;6539;49.476;8.484;2023-02-28T02:51:35;2.73;;;2.53;;
12947;SDS011;6539;49.476;8.484;2023-02-28T02:54:10;3.33;;;2.70;;
12947;SDS011;6539;49.476;8.484;2023-02-28T02:56:45;5.80;;;3.30;;
12947;SDS011;6539;49.476;8.484;2023-02-28T02:59:18;3.53;;;2.70;;
12947;SDS011;6539;49.476;8.484;2023-02-28T03:01:52;4.40;;;3.30;;
12947;SDS011;6539;49.476;8.484;2023-02-28T03:04:26;4.97;;;3.27;;
12947;SDS011;6539;49.476;8.484;2023-02-28T03:07:02;4.03;;;3.07;;
12947;SDS011;6539;49.476;8.484;2023-02-28T03:09:28;3.87;;;2.80;;
12947;SDS011;6539;49.476;8.484;2023-02-28T03:11:56;3.10;;;2.80;;
12947;SDS011;6539;49.476;8.484;2023-02-28T03:17:36;4.57;;;3.13;;
12947;SDS011;6539;49.476;8.484;2023-02-28T03:23:28;3.20;;;2.90;;
12947;SDS011;6539;49.476;8.484;2023-02-28T03:26:13;4.13;;;3.30;;
12947;SDS011;6539;49.476;8.484;2023-02-28T03:29:05;4.37;;;3.27;;
12947;SDS011;6539;49.476;8.484;2023-02-28T03:31:55;3.20;;;2.90;;
12947;SDS011;6539;49.476;8.484;2023-02-28T03:34:29;3.33;;;3.03;;
12947;SDS011;6539;49.476;8.484;2023-02-28T03:37:07;4.43;;;3.30;;
12947;SDS011;6539;49.476;8.484;2023-02-28T03:39:42;5.10;;;3.13;;
12947;SDS011;6539;49.476;8.484;2023-02-28T03:42:22;3.87;;;2.77;;
12947;SDS011;6539;49.476;8.484;2023-02-28T03:45:00;3.30;;;3.00;;
12947;SDS011;6539;49.476;8.484;2023-02-28T03:47:36;3.33;;;3.03;;
12947;SDS011;6539;49.476;8.484;2023-02-28T03:50:21;4.37;;;3.03;;
12947;SDS011;6539;49.476;8.484;2023-02-28T03:55:49;5.63;;;3.40;;
12947;SDS011;6539;49.476;8.484;2023-02-28T04:00:55;3.80;;;3.10;;
12947;SDS011;6539;49.476;8.484;2023-02-28T04:03:33;4.03;;;3.07;;
12947;SDS011;6539;49.476;8.484;2023-02-28T04:06:04;4.57;;;3.60;;
12947;SDS011;6539;49.476;8.484;2023-02-28T04:08:37;3.77;;;3.33;;
12947;SDS011;6539;49.476;8.484;2023-02-28T04:11:04;3.90;;;3.37;;
12947;SDS011;6539;49.476;8.484;2023-02-28T04:13:44;4.53;;;3.50;;
12947;SDS011;6539;49.476;8.484;2023-02-28T04:16:10;3.93;;;3.20;;
12947;SDS011;6539;49.476;8.484;2023-02-28T04:18:39;3.77;;;3.13;;
12947;SDS011;6539;49.476;8.484;2023-02-28T04:21:05;3.80;;;3.40;;
12947;SDS011;6539;49.476;8.484;2023-02-28T04:23:34;3.40;;;3.10;;
12947;SDS011;6539;49.476;8.484;2023-02-28T04:26:00;5.03;;;3.43;;
12947;SDS011;6539;49.476;8.484;2023-02-28T04:28:28;3.30;;;3.00;;
12947;SDS011;6539;49.476;8.484;2023-02-28T04:30:57;4.43;;;3.40;;
12947;SDS011;6539;49.476;8.484;2023-02-28T04:33:28;3.90;;;3.20;;
12947;SDS011;6539;49.476;8.484;2023-02-28T04:36:02;4.17;;;3.00;;
12947;SDS011;6539;49.476;8.484;2023-02-28T04:38:37;4.47;;;3.33;;
12947;SDS011;6539;49.476;8.484;2023-02-28T04:41:06;4.03;;;3.00;;
12947;SDS011;6539;49.476;8.484;2023-02-28T04:43:32;5.00;;;3.20;;
12947;SDS011;6539;49.476;8.484;2023-02-28T04:46:00;3.47;;;3.13;;
12947;SDS011;6539;49.476;8.484;2023-02-28T04:48:32;3.23;;;2.93;;
12947;SDS011;6539;49.476;8.484;2023-02-28T04:53:32;3.00;;;2.70;;
12947;SDS011;6539;49.476;8.484;2023-02-28T04:55:58;4.43;;;3.20;;
12947;SDS011;6539;49.476;8.484;2023-02-28T04:58:25;4.23;;;3.20;;
12947;SDS011;6539;49.476;8.484;2023-02-28T05:00:57;4.13;;;3.00;;
12947;SDS011;6539;49.476;8.484;2023-02-28T05:03:38;4.57;;;3.30;;
12947;SDS011;6539;49.476;8.484;2023-02-28T05:06:08;4.77;;;3.60;;
12947;SDS011;6539;49.476;8.484;2023-02-28T05:08:35;4.60;;;3.50;;
12947;SDS011;6539;49.476;8.484;2023-02-28T05:11:02;4.03;;;3.30;;
12947;SDS011;6539;49.476;8.484;2023-02-28T05:13:29;3.60;;;3.30;;
12947;SDS011;6539;49.476;8.484;2023-02-28T05:15:55;5.23;;;3.13;;
12947;SDS011;6539;49.476;8.484;2023-02-28T05:18:21;3.43;;;3.00;;
12947;SDS011;6539;49.476;8.484;2023-02-28T05:20:49;4.57;;;3.17;;
12947;SDS011;6539;49.476;8.484;2023-02-28T05:23:17;4.13;;;3.37;;
12947;SDS011;6539;49.476;8.484;2023-02-28T05:25:47;4.17;;;3.23;;
12947;SDS011;6539;49.476;8.484;2023-02-28T05:28:15;4.10;;;3.47;;
12947;SDS011;6539;49.476;8.484;2023-02-28T05:30:44;4.70;;;3.40;;
12947;SDS011;6539;49.476;8.484;2023-02-28T05:33:12;5.23;;;3.17;;
12947;SDS011;6539;49.476;8.484;2023-02-28T05:35:39;3.53;;;3.23;;
12947;SDS011;6539;49.476;8.484;2023-02-28T05:38:07;3.40;;;3.10;;
12947;SDS011;6539;49.476;8.484;2023-02-28T05:40:34;5.13;;;3.10;;
12947;SDS011;6539;49.476;8.484;2023-02-28T05:43:07;4.57;;;3.33;;
12947;SDS011;6539;49.476;8.484;2023-02-28T05:45:36;4.20;;;3.73;;
12947;SDS011;6539;49.476;8.484;2023-02-28T05:48:03;6.03;;;3.70;;
12947;SDS011;6539;49.476;8.484;2023-02-28T05:50:29;3.87;;;3.43;;
12947;SDS011;6539;49.476;8.484;2023-02-28T05:52:55;4.93;;;3.20;;
12947;SDS011;6539;49.476;8.484;2023-02-28T05:55:21;3.83;;;3.37;;
12947;SDS011;6539;49.476;8.484;2023-02-28T05:57:47;3.93;;;3.30;;
12947;SDS011;6539;49.476;8.484;2023-02-28T06:00:25;3.73;;;3.23;;
12947;SDS011;6539;49.476;8.484;2023-02-28T06:02:51;5.23;;;3.37;;
12947;SDS011;6539;49.476;8.484;2023-02-28T06:05:24;4.70;;;3.67;;
12947;SDS011;6539;49.476;8.484;2023-02-28T06:07:52;3.63;;;3.20;;
12947;SDS011;6539;49.476;8.484;2023-02-28T06:10:18;3.90;;;3.50;;
12947;SDS011;6539;49.476;8.484;2023-02-28T06:12:44;5.73;;;3.50;;
12947;SDS011;6539;49.476;8.484;2023-02-28T06:15:13;4.27;;;3.57;;
12947;SDS011;6539;49.476;8.484;2023-02-28T06:17:44;4.03;;;3.20;;
12947;SDS011;6539;49.476;8.484;2023-02-28T06:20:10;3.73;;;3.40;;
12947;SDS011;6539;49.476;8.484;2023-02-28T06:22:38;5.50;;;3.87;;
12947;SDS011;6539;49.476;8.484;2023-02-28T06:25:05;4.57;;;3.70;;
12947;SDS011;6539;49.476;8.484;2023-02-28T06:27:32;9.50;;;6.63;;
12947;SDS011;6539;49.476;8.484;2023-02-28T06:29:58;7.07;;;6.10;;
12947;SDS011;6539;49.476;8.484;2023-02-28T06:32:27;10.83;;;8.10;;
12947;SDS011;6539;49.476;8.484;2023-02-28T06:34:53;5.73;;;4.60;;
12947;SDS011;6539;49.476;8.484;2023-02-28T06:37:23;10.10;;;6.27;;
12947;SDS011;6539;49.476;8.484;2023-02-28T06:39:51;6.03;;;4.97;;
12947;SDS011;6539;49.476;8.484;2023-02-28T06:42:21;6.73;;;3.83;;
12947;SDS011;6539;49.476;8.484;2023-02-28T06:44:54;7.10;;;3.83;;
12947;SDS011;6539;49.476;8.484;2023-02-28T06:47:23;5.07;;;3.63;;
12947;SDS011;6539;49.476;8.484;2023-02-28T06:49:49;6.23;;;3.93;;
12947;SDS011;6539;49.476;8.484;2023-02-28T06:52:15;5.37;;;3.73;;
12947;SDS011;6539;49.476;8.484;2023-02-28T06:54:44;5.80;;;3.47;;
12947;SDS011;6539;49.476;8.484;2023-02-28T06:57:12;6.40;;;4.03;;
12947;SDS011;6539;49.476;8.484;2023-02-28T06:59:40;6.30;;;4.43;;
12947;SDS011;6539;49.476;8.484;2023-02-28T07:02:08;4.10;;;3.63;;
12947;SDS011;6539;49.476;8.484;2023-02-28T07:04:39;9.77;;;4.80;;
12947;SDS011;6539;49.476;8.484;2023-02-28T07:07:11;10.83;;;6.23;;
12947;SDS011;6539;49.476;8.484;2023-02-28T07:09:37;8.60;;;5.30;;
12947;SDS011;6539;49.476;8.484;2023-02-28T07:12:03;11.37;;;7.20;;
12947;SDS011;6539;49.476;8.484;2023-02-28T07:14:31;7.90;;;4.57;;
12947;SDS011;6539;49.476;8.484;2023-02-28T07:16:57;7.70;;;4.10;;
12947;SDS011;6539;49.476;8.484;2023-02-28T07:19:29;6.53;;;3.93;;
12947;SDS011;6539;49.476;8.484;2023-02-28T07:21:55;8.60;;;4.33;;
12947;SDS011;6539;49.476;8.484;2023-02-28T07:24:21;6.03;;;4.00;;
12947;SDS011;6539;49.476;8.484;2023-02-28T07:26:48;7.03;;;4.17;;
12947;SDS011;6539;49.476;8.484;2023-02-28T07:29:22;6.33;;;4.23;;
12947;SDS011;6539;49.476;8.484;2023-02-28T07:31:47;5.33;;;4.37;;
12947;SDS011;6539;49.476;8.484;2023-02-28T07:34:17;5.33;;;4.03;;
12947;SDS011;6539;49.476;8.484;2023-02-28T07:36:46;7.33;;;4.53;;
12947;SDS011;6539;49.476;8.484;2023-02-28T07:39:12;5.83;;;3.83;;
12947;SDS011;6539;49.476;8.484;2023-02-28T07:41:39;6.13;;;4.10;;
12947;SDS011;6539;49.476;8.484;2023-02-28T07:44:10;7.83;;;4.33;;
12947;SDS011;6539;49.476;8.484;2023-02-28T07:46:39;6.50;;;3.87;;
12947;SDS011;6539;49.476;8.484;2023-02-28T07:49:05;6.17;;;4.57;;
12947;SDS011;6539;49.476;8.484;2023-02-28T07:51:31;5.60;;;4.13;;
12947;SDS011;6539;49.476;8.484;2023-02-28T07:53:57;5.20;;;4.13;;
12947;SDS011;6539;49.476;8.484;2023-02-28T07:56:23;6.50;;;4.10;;
12947;SDS011;6539;49.476;8.484;2023-02-28T07:58:48;5.80;;;4.47;;
12947;SDS011;6539;49.476;8.484;2023-02-28T08:01:14;9.60;;;6.70;;
12947;SDS011;6539;49.476;8.484;2023-02-28T08:03:43;8.37;;;5.27;;
12947;SDS011;6539;49.476;8.484;2023-02-28T08:06:15;14.90;;;9.90;;
12947;SDS011;6539;49.476;8.484;2023-02-28T08:08:46;13.13;;;8.47;;
12947;SDS011;6539;49.476;8.484;2023-02-28T08:11:13;6.63;;;5.00;;
12947;SDS011;6539;49.476;8.484;2023-02-28T08:13:43;7.63;;;4.70;;
12947;SDS011;6539;49.476;8.484;2023-02-28T08:16:11;5.57;;;4.70;;
12947;SDS011;6539;49.476;8.484;2023-02-28T08:18:42;6.47;;;4.70;;
12947;SDS011;6539;49.476;8.484;2023-02-28T08:21:09;6.30;;;4.23;;
12947;SDS011;6539;49.476;8.484;2023-02-28T08:23:36;5.47;;;4.20;;
12947;SDS011;6539;49.476;8.484;2023-02-28T08:26:04;5.30;;;4.77;;
12947;SDS011;6539;49.476;8.484;2023-02-28T08:28:33;5.63;;;4.63;;
12947;SDS011;6539;49.476;8.484;2023-02-28T08:30:59;5.37;;;4.73;;
12947;SDS011;6539;49.476;8.484;2023-02-28T08:33:28;6.10;;;4.27;;
12947;SDS011;6539;49.476;8.484;2023-02-28T08:35:56;6.30;;;4.60;;
12947;SDS011;6539;49.476;8.484;2023-02-28T08:38:22;5.20;;;4.70;;
12947;SDS011;6539;49.476;8.484;2023-02-28T08:40:49;6.00;;;4.33;;
12947;SDS011;6539;49.476;8.484;2023-02-28T08:43:21;6.33;;;5.03;;
12947;SDS011;6539;49.476;8.484;2023-02-28T08:45:47;5.40;;;4.90;;
12947;SDS011;6539;49.476;8.484;2023-02-28T08:48:19;5.50;;;4.50;;
12947;SDS011;6539;49.476;8.484;2023-02-28T08:50:54;5.23;;;4.73;;
12947;SDS011;6539;49.476;8.484;2023-02-28T08:53:32;6.97;;;4.73;;
12947;SDS011;6539;49.476;8.484;2023-02-28T08:56:08;5.20;;;4.63;;
12947;SDS011;6539;49.476;8.484;2023-02-28T08:58:39;5.87;;;4.50;;
12947;SDS011;6539;49.476;8.484;2023-02-28T09:01:24;5.43;;;4.93;;
12947;SDS011;6539;49.476;8.484;2023-02-28T09:03:58;6.57;;;4.80;;
12947;SDS011;6539;49.476;8.484;2023-02-28T09:06:25;7.57;;;4.90;;
12947;SDS011;6539;49.476;8.484;2023-02-28T09:08:56;6.93;;;5.07;;
12947;SDS011;6539;49.476;8.484;2023-02-28T09:11:26;6.73;;;4.73;;
12947;SDS011;6539;49.476;8.484;2023-02-28T09:13:53;5.03;;;4.40;;
12947;SDS011;6539;49.476;8.484;2023-02-28T09:16:22;6.17;;;4.43;;
12947;SDS011;6539;49.476;8.484;2023-02-28T09:18:48;7.00;;;4.80;;
12947;SDS011;6539;49.476;8.484;2023-02-28T09:21:15;9.00;;;6.80;;
12947;SDS011;6539;49.476;8.484;2023-02-28T09:23:48;5.63;;;4.87;;
12947;SDS011;6539;49.476;8.484;2023-02-28T09:26:18;6.43;;;4.47;;
12947;SDS011;6539;49.476;8.484;2023-02-28T09:28:48;10.67;;;8.30;;
12947;SDS011;6539;49.476;8.484;2023-02-28T09:31:19;6.67;;;5.53;;
12947;SDS011;6539;49.476;8.484;2023-02-28T09:33:49;6.37;;;4.80;;
12947;SDS011;6539;49.476;8.484;2023-02-28T09:36:18;8.07;;;4.77;;
12947;SDS011;6539;49.476;8.484;2023-02-28T09:38:47;7.60;;;4.67;;
12947;SDS011;6539;49.476;8.484;2023-02-28T09:43:56;5.23;;;4.57;;
12947;SDS011;6539;49.476;8.484;2023-02-28T09:49:11;6.27;;;4.70;;
12947;SDS011;6539;49.476;8.484;2023-02-28T09:52:10;5.87;;;4.73;;
12947;SDS011;6539;49.476;8.484;2023-02-28T09:54:45;7.70;;;4.77;;
12947;SDS011;6539;49.476;8.484;2023-02-28T09:57:29;7.77;;;4.93;;
12947;SDS011;6539;49.476;8.484;2023-02-28T10:05:38;6.53;;;5.03;;
12947;SDS011;6539;49.476;8.484;2023-02-28T10:08:14;8.10;;;5.10;;
12947;SDS011;6539;49.476;8.484;2023-02-28T10:11:15;6.43;;;4.90;;
12947;SDS011;6539;49.476;8.484;2023-02-28T10:16:35;6.27;;;4.87;;
12947;SDS011;6539;49.476;8.484;2023-02-28T10:19:29;5.97;;;5.17;;
12947;SDS011;6539;49.476;8.484;2023-02-28T10:22:29;5.97;;;5.20;;
12947;SDS011;6539;49.476;8.484;2023-02-28T10:25:21;6.20;;;5.10;;
12947;SDS011;6539;49.476;8.484;2023-02-28T10:27:57;7.30;;;5.20;;
12947;SDS011;6539;49.476;8.484;2023-02-28T10:30:37;7.20;;;5.50;;
12947;SDS011;6539;49.476;8.484;2023-02-28T10:33:21;5.23;;;4.70;;
12947;SDS011;6539;49.476;8.484;2023-02-28T10:35:55;7.13;;;5.13;;
12947;SDS011;6539;49.476;8.484;2023-02-28T10:38:29;6.70;;;5.17;;
12947;SDS011;6539;49.476;8.484;2023-02-28T10:41:04;5.90;;;5.23;;
12947;SDS011;6539;49.476;8.484;2023-02-28T10:43:36;6.33;;;4.67;;
12947;SDS011;6539;49.476;8.484;2023-02-28T10:46:11;6.97;;;4.77;;
12947;SDS011;6539;49.476;8.484;2023-02-28T10:48:59;6.07;;;4.90;;
12947;SDS011;6539;49.476;8.484;2023-02-28T10:51:39;8.27;;;4.90;;
12947;SDS011;6539;49.476;8.484;2023-02-28T10:54:13;6.67;;;5.20;;
12947;SDS011;6539;49.476;8.484;2023-02-28T10:56:46;7.23;;;4.80;;
12947;SDS011;6539;49.476;8.484;2023-02-28T10:59:40;6.53;;;5.37;;
12947;SDS011;6539;49.476;8.484;2023-02-28T11:08:02;8.17;;;4.60;;
12947;SDS011;6539;49.476;8.484;2023-02-28T11:10:43;8.27;;;5.30;;
12947;SDS011;6539;49.476;8.484;2023-02-28T11:13:20;5.43;;;4.90;;
12947;SDS011;6539;49.476;8.484;2023-02-28T11:15:58;5.47;;;4.73;;
12947;SDS011;6539;49.476;8.484;2023-02-28T11:21:16;5.33;;;4.80;;
12947;SDS011;6539;49.476;8.484;2023-02-28T11:26:36;7.77;;;5.23;;
12947;SDS011;6539;49.476;8.484;2023-02-28T11:29:10;7.20;;;5.37;;
12947;SDS011;6539;49.476;8.484;2023-02-28T11:32:00;6.03;;;5.43;;
12947;SDS011;6539;49.476;8.484;2023-02-28T11:34:46;7.97;;;5.77;;
12947;SDS011;6539;49.476;8.484;2023-02-28T11:37:39;5.97;;;5.27;;
12947;SDS011;6539;49.476;8.484;2023-02-28T11:40:13;6.40;;;5.77;;
12947;SDS011;6539;49.476;8.484;2023-02-28T11:46:05;6.30;;;5.57;;
12947;SDS011;6539;49.476;8.484;2023-02-28T11:55:31;6.40;;;5.37;;
12947;SDS011;6539;49.476;8.484;2023-02-28T12:06:23;7.97;;;5.37;;
12947;SDS011;6539;49.476;8.484;2023-02-28T12:12:43;7.10;;;5.47;;
12947;SDS011;6539;49.476;8.484;2023-02-28T12:21:31;6.97;;;5.80;;
12947;SDS011;6539;49.476;8.484;2023-02-28T12:24:34;6.80;;;5.77;;
12947;SDS011;6539;49.476;8.484;2023-02-28T12:27:11;6.03;;;5.43;;
12947;SDS011;6539;49.476;8.484;2023-02-28T12:29:58;11.20;;;5.90;;
12947;SDS011;6539;49.476;8.484;2023-02-28T12:32:41;9.37;;;5.97;;
12947;SDS011;6539;49.476;8.484;2023-02-28T12:35:18;8.60;;;5.87;;
12947;SDS011;6539;49.476;8.484;2023-02-28T12:40:47;8.87;;;7.53;;
12947;SDS011;6539;49.476;8.484;2023-02-28T12:43:19;12.43;;;8.97;;
12947;SDS011;6539;49.476;8.484;2023-02-28T12:45:52;8.63;;;6.40;;
12947;SDS011;6539;49.476;8.484;2023-02-28T12:48:46;9.83;;;7.07;;
12947;SDS011;6539;49.476;8.484;2023-02-28T12:51:24;6.97;;;5.70;;
12947;SDS011;6539;49.476;8.484;2023-02-28T12:56:28;6.27;;;5.67;;
12947;SDS011;6539;49.476;8.484;2023-02-28T13:04:35;8.97;;;6.50;;
12947;SDS011;6539;49.476;8.484;2023-02-28T13:10:48;7.93;;;6.63;;
12947;SDS011;6539;49.476;8.484;2023-02-28T13:13:20;8.27;;;6.10;;
12947;SDS011;6539;49.476;8.484;2023-02-28T13:15:59;7.57;;;6.57;;
12947;SDS011;6539;49.476;8.484;2023-02-28T13:18:34;6.87;;;6.20;;
12947;SDS011;6539;49.476;8.484;2023-02-28T13:24:10;7.90;;;6.83;;
12947;SDS011;6539;49.476;8.484;2023-02-28T13:29:34;7.40;;;6.60;;
12947;SDS011;6539;49.476;8.484;2023-02-28T13:39:55;7.17;;;6.47;;
12947;SDS011;6539;49.476;8.484;2023-02-28T13:47:31;6.93;;;6.23;;
12947;SDS011;6539;49.476;8.484;2023-02-28T14:06:56;7.30;;;6.17;;
12947;SDS011;6539;49.476;8.484;2023-02-28T14:09:31;10.80;;;7.30;;
12947;SDS011;6539;49.476;8.484;2023-02-28T14:17:58;12.67;;;7.60;;
12947;SDS011;6539;49.476;8.484;2023-02-28T14:20:29;8.50;;;7.60;;
12947;SDS011;6539;49.476;8.484;2023-02-28T14:26:16;8.57;;;6.73;;
12947;SDS011;6539;49.476;8.484;2023-02-28T14:32:11;12.17;;;6.77;;
12947;SDS011;6539;49.476;8.484;2023-02-28T14:35:13;9.23;;;7.07;;
12947;SDS011;6539;49.476;8.484;2023-02-28T14:37:53;8.40;;;6.70;;
12947;SDS011;6539;49.476;8.484;2023-02-28T14:43:01;8.57;;;6.70;;
12947;SDS011;6539;49.476;8.484;2023-02-28T14:45:43;8.10;;;6.33;;
12947;SDS011;6539;49.476;8.484;2023-02-28T14:48:16;7.70;;;6.90;;
12947;SDS011;6539;49.476;8.484;2023-02-28T14:50:48;8.63;;;6.73;;
12947;SDS011;6539;49.476;8.484;2023-02-28T14:53:29;7.97;;;6.47;;
12947;SDS011;6539;49.476;8.484;2023-02-28T14:56:02;8.23;;;6.53;;
12947;SDS011;6539;49.476;8.484;2023-02-28T14:58:31;11.03;;;6.67;;
12947;SDS011;6539;49.476;8.484;2023-02-28T15:01:01;7.33;;;6.27;;
12947;SDS011;6539;49.476;8.484;2023-02-28T15:03:36;7.73;;;6.73;;
12947;SDS011;6539;49.476;8.484;2023-02-28T15:06:05;9.30;;;6.80;;
12947;SDS011;6539;49.476;8.484;2023-02-28T15:08:41;8.27;;;7.37;;
12947;SDS011;6539;49.476;8.484;2023-02-28T15:13:40;7.97;;;7.00;;
12947;SDS011;6539;49.476;8.484;2023-02-28T15:16:10;9.00;;;6.47;;
12947;SDS011;6539;49.476;8.484;2023-02-28T15:19:01;8.83;;;6.80;;
12947;SDS011;6539;49.476;8.484;2023-02-28T15:21:36;11.37;;;8.13;;
12947;SDS011;6539;49.476;8.484;2023-02-28T15:24:17;7.53;;;6.73;;
12947;SDS011;6539;49.476;8.484;2023-02-28T15:27:00;9.60;;;8.17;;
12947;SDS011;6539;49.476;8.484;2023-02-28T15:29:34;12.80;;;9.33;;
12947;SDS011;6539;49.476;8.484;2023-02-28T15:34:59;9.73;;;8.40;;
12947;SDS011;6539;49.476;8.484;2023-02-28T15:37:56;9.83;;;6.90;;
12947;SDS011;6539;49.476;8.484;2023-02-28T15:42:58;7.87;;;6.97;;
12947;SDS011;6539;49.476;8.484;2023-02-28T15:45:47;9.93;;;7.07;;
12947;SDS011;6539;49.476;8.484;2023-02-28T15:48:20;10.10;;;6.70;;
12947;SDS011;6539;49.476;8.484;2023-02-28T15:50:55;8.60;;;7.30;;
12947;SDS011;6539;49.476;8.484;2023-02-28T15:53:37;11.73;;;7.50;;
12947;SDS011;6539;49.476;8.484;2023-02-28T15:56:25;7.77;;;6.93;;
12947;SDS011;6539;49.476;8.484;2023-02-28T15:58:54;8.40;;;7.37;;
12947;SDS011;6539;49.476;8.484;2023-02-28T16:01:29;11.00;;;7.10;;
12947;SDS011;6539;49.476;8.484;2023-02-28T16:04:03;8.77;;;7.20;;
12947;SDS011;6539;49.476;8.484;2023-02-28T16:09:14;7.37;;;6.67;;
12947;SDS011;6539;49.476;8.484;2023-02-28T16:11:44;9.23;;;7.23;;
12947;SDS011;6539;49.476;8.484;2023-02-28T16:14:18;12.30;;;9.03;;
12947;SDS011;6539;49.476;8.484;2023-02-28T16:17:04;7.77;;;6.90;;
12947;SDS011;6539;49.476;8.484;2023-02-28T16:19:39;9.30;;;7.20;;
12947;SDS011;6539;49.476;8.484;2023-02-28T16:22:05;10.37;;;8.90;;
12947;SDS011;6539;49.476;8.484;2023-02-28T16:24:30;10.20;;;8.17;;
12947;SDS011;6539;49.476;8.484;2023-02-28T16:26:56;9.33;;;6.70;;
12947;SDS011;6539;49.476;8.484;2023-02-28T16:29:24;7.27;;;6.53;;
12947;SDS011;6539;49.476;8.484;2023-02-28T16:31:59;10.77;;;6.80;;
12947;SDS011;6539;49.476;8.484;2023-02-28T16:34:28;8.40;;;6.77;;
12947;SDS011;6539;49.476;8.484;2023-02-28T16:36:54;9.80;;;7.63;;
12947;SDS011;6539;49.476;8.484;2023-02-28T16:39:19;9.23;;;7.17;;
12947;SDS011;6539;49.476;8.484;2023-02-28T16:41:50;8.60;;;7.03;;
12947;SDS011;6539;49.476;8.484;2023-02-28T16:44:27;9.57;;;7.30;;
12947;SDS011;6539;49.476;8.484;2023-02-28T16:47:00;34.43;;;22.47;;
12947;SDS011;6539;49.476;8.484;2023-02-28T16:49:30;11.87;;;9.73;;
12947;SDS011;6539;49.476;8.484;2023-02-28T16:51:57;8.30;;;7.27;;
12947;SDS011;6539;49.476;8.484;2023-02-28T16:54:23;8.37;;;6.93;;
12947;SDS011;6539;49.476;8.484;2023-02-28T16:56:51;31.50;;;22.60;;
12947;SDS011;6539;49.476;8.484;2023-02-28T16:59:18;10.73;;;8.30;;
12947;SDS011;6539;49.476;8.484;2023-02-28T17:01:50;9.13;;;7.63;;
12947;SDS011;6539;49.476;8.484;2023-02-28T17:04:17;9.50;;;7.17;;
12947;SDS011;6539;49.476;8.484;2023-02-28T17:06:45;7.20;;;6.40;;
12947;SDS011;6539;49.476;8.484;2023-02-28T17:09:29;8.37;;;6.87;;
12947;SDS011;6539;49.476;8.484;2023-02-28T17:11:55;12.33;;;8.60;;
12947;SDS011;6539;49.476;8.484;2023-02-28T17:14:24;11.50;;;8.40;;
12947;SDS011;6539;49.476;8.484;2023-02-28T17:16:49;11.73;;;7.97;;
12947;SDS011;6539;49.476;8.484;2023-02-28T17:19:16;10.43;;;7.30;;
12947;SDS011;6539;49.476;8.484;2023-02-28T17:21:42;11.10;;;6.80;;
12947;SDS011;6539;49.476;8.484;2023-02-28T17:24:11;10.43;;;7.57;;
12947;SDS011;6539;49.476;8.484;2023-02-28T17:26:37;10.17;;;7.40;;
12947;SDS011;6539;49.476;8.484;2023-02-28T17:29:11;11.03;;;6.83;;
12947;SDS011;6539;49.476;8.484;2023-02-28T17:31:46;10.27;;;7.70;;
12947;SDS011;6539;49.476;8.484;2023-02-28T17:34:16;8.80;;;7.17;;
12947;SDS011;6539;49.476;8.484;2023-02-28T17:36:48;8.67;;;7.30;;
12947;SDS011;6539;49.476;8.484;2023-02-28T17:39:19;10.73;;;7.20;;
12947;SDS011;6539;49.476;8.484;2023-02-28T17:41:51;8.87;;;7.63;;
12947;SDS011;6539;49.476;8.484;2023-02-28T17:44:18;10.10;;;7.20;;
12947;SDS011;6539;49.476;8.484;2023-02-28T17:46:48;11.13;;;7.47;;
12947;SDS011;6539;49.476;8.484;2023-02-28T17:49:15;7.43;;;6.70;;
12947;SDS011;6539;49.476;8.484;2023-02-28T17:51:45;8.27;;;7.00;;
12947;SDS011;6539;49.476;8.484;2023-02-28T17:54:15;9.37;;;7.67;;
12947;SDS011;6539;49.476;8.484;2023-02-28T17:56:43;10.37;;;7.73;;
12947;SDS011;6539;49.476;8.484;2023-02-28T17:59:11;10.20;;;7.93;;
12947;SDS011;6539;49.476;8.484;2023-02-28T18:01:40;10.00;;;7.50;;
12947;SDS011;6539;49.476;8.484;2023-02-28T18:04:06;16.03;;;10.87;;
12947;SDS011;6539;49.476;8.484;2023-02-28T18:06:35;12.43;;;9.53;;
12947;SDS011;6539;49.476;8.484;2023-02-28T18:09:14;18.90;;;13.37;;
12947;SDS011;6539;49.476;8.484;2023-02-28T18:11:52;11.03;;;8.27;;